sensor_id;sensor_type;location;lat;lon;timestamp;temperature;humidity
14577;DHT22;7375;46.072;14.470;2022-11-20T00:01:07;18.80;69.40
14577;DHT22;7375;46.072;14.470;2022-11-20T00:03:34;18.80;69.50
14577;DHT22;7375;46.072;14.470;2022-11-20T00:06:01;18.80;69.50
14577;DHT22;7375;46.072;14.470;2022-11-20T00:08:30;18.80;69.50
14577;DHT22;7375;46.072;14.470;2022-11-20T00:10:57;18.80;69.40
14577;DHT22;7375;46.072;14.470;2022-11-20T00:13:24;18.80;69.40
14577;DHT22;7375;46.072;14.470;2022-11-20T00:15:56;18.80;69.40
14577;DHT22;7375;46.072;14.470;2022-11-20T00:18:24;18.80;69.40
14577;DHT22;7375;46.072;14.470;2022-11-20T00:20:51;18.80;69.40
14577;DHT22;7375;46.072;14.470;2022-11-20T00:23:18;18.70;69.40
14577;DHT22;7375;46.072;14.470;2022-11-20T00:25:46;18.70;69.30
14577;DHT22;7375;46.072;14.470;2022-11-20T00:28:13;18.80;69.50
14577;DHT22;7375;46.072;14.470;2022-11-20T00:30:40;18.80;69.40
14577;DHT22;7375;46.072;14.470;2022-11-20T00:33:06;18.70;69.40
14577;DHT22;7375;46.072;14.470;2022-11-20T00:35:33;18.70;69.30
14577;DHT22;7375;46.072;14.470;2022-11-20T00:38:00;18.80;69.40
14577;DHT22;7375;46.072;14.470;2022-11-20T00:40:29;18.70;69.30
14577;DHT22;7375;46.072;14.470;2022-11-20T00:42:57;18.70;69.30
14577;DHT22;7375;46.072;14.470;2022-11-20T00:45:24;18.70;69.30
14577;DHT22;7375;46.072;14.470;2022-11-20T00:47:51;18.70;69.30
14577;DHT22;7375;46.072;14.470;2022-11-20T00:50:19;18.70;69.30
14577;DHT22;7375;46.072;14.470;2022-11-20T00:52:46;18.70;69.30
14577;DHT22;7375;46.072;14.470;2022-11-20T00:55:13;18.70;69.30
14577;DHT22;7375;46.072;14.470;2022-11-20T00:57:40;18.70;69.30
14577;DHT22;7375;46.072;14.470;2022-11-20T01:00:11;18.70;69.30
14577;DHT22;7375;46.072;14.470;2022-11-20T01:02:37;18.70;69.30
14577;DHT22;7375;46.072;14.470;2022-11-20T01:05:04;18.70;69.30
14577;DHT22;7375;46.072;14.470;2022-11-20T01:07:31;18.70;69.30
14577;DHT22;7375;46.072;14.470;2022-11-20T01:09:58;18.70;69.20
14577;DHT22;7375;46.072;14.470;2022-11-20T01:12:25;18.70;69.30
14577;DHT22;7375;46.072;14.470;2022-11-20T01:14:51;18.70;69.30
14577;DHT22;7375;46.072;14.470;2022-11-20T01:17:20;18.70;69.30
14577;DHT22;7375;46.072;14.470;2022-11-20T01:19:48;18.60;69.20
14577;DHT22;7375;46.072;14.470;2022-11-20T01:22:15;18.60;69.30
14577;DHT22;7375;46.072;14.470;2022-11-20T01:24:41;18.70;69.30
14577;DHT22;7375;46.072;14.470;2022-11-20T01:27:08;18.70;69.30
14577;DHT22;7375;46.072;14.470;2022-11-20T01:29:35;18.60;69.20
14577;DHT22;7375;46.072;14.470;2022-11-20T01:32:02;18.60;69.20
14577;DHT22;7375;46.072;14.470;2022-11-20T01:34:30;18.60;69.20
14577;DHT22;7375;46.072;14.470;2022-11-20T01:36:56;18.60;69.20
14577;DHT22;7375;46.072;14.470;2022-11-20T01:39:24;18.70;69.30
14577;DHT22;7375;46.072;14.470;2022-11-20T01:41:52;18.60;69.20
14577;DHT22;7375;46.072;14.470;2022-11-20T01:47:22;18.60;69.20
14577;DHT22;7375;46.072;14.470;2022-11-20T01:49:52;18.60;69.20
14577;DHT22;7375;46.072;14.470;2022-11-20T01:52:21;18.60;69.20
14577;DHT22;7375;46.072;14.470;2022-11-20T01:54:50;18.60;69.20
14577;DHT22;7375;46.072;14.470;2022-11-20T01:57:18;18.60;69.10
14577;DHT22;7375;46.072;14.470;2022-11-20T01:59:47;18.60;69.20
14577;DHT22;7375;46.072;14.470;2022-11-20T02:02:17;18.60;69.40
14577;DHT22;7375;46.072;14.470;2022-11-20T02:04:44;18.60;69.20
14577;DHT22;7375;46.072;14.470;2022-11-20T02:07:12;18.60;69.20
14577;DHT22;7375;46.072;14.470;2022-11-20T02:09:40;18.60;69.10
14577;DHT22;7375;46.072;14.470;2022-11-20T02:12:06;18.60;69.20
14577;DHT22;7375;46.072;14.470;2022-11-20T02:14:53;18.60;69.20
14577;DHT22;7375;46.072;14.470;2022-11-20T02:17:19;18.60;69.20
14577;DHT22;7375;46.072;14.470;2022-11-20T02:19:48;18.60;69.10
14577;DHT22;7375;46.072;14.470;2022-11-20T02:22:18;18.60;69.20
14577;DHT22;7375;46.072;14.470;2022-11-20T02:24:49;18.60;69.20
14577;DHT22;7375;46.072;14.470;2022-11-20T02:27:17;18.60;69.10
14577;DHT22;7375;46.072;14.470;2022-11-20T02:29:44;18.60;69.10
14577;DHT22;7375;46.072;14.470;2022-11-20T02:32:17;18.60;69.10
14577;DHT22;7375;46.072;14.470;2022-11-20T02:34:44;18.50;69.00
14577;DHT22;7375;46.072;14.470;2022-11-20T02:37:11;18.50;69.10
14577;DHT22;7375;46.072;14.470;2022-11-20T02:39:38;18.50;69.00
14577;DHT22;7375;46.072;14.470;2022-11-20T02:42:07;18.50;69.10
14577;DHT22;7375;46.072;14.470;2022-11-20T02:44:34;18.50;69.10
14577;DHT22;7375;46.072;14.470;2022-11-20T02:47:01;18.50;69.10
14577;DHT22;7375;46.072;14.470;2022-11-20T02:49:28;18.50;69.00
14577;DHT22;7375;46.072;14.470;2022-11-20T02:51:55;18.50;69.10
14577;DHT22;7375;46.072;14.470;2022-11-20T02:54:25;18.50;69.10
14577;DHT22;7375;46.072;14.470;2022-11-20T02:56:55;18.50;69.10
14577;DHT22;7375;46.072;14.470;2022-11-20T02:59:23;18.50;69.00
14577;DHT22;7375;46.072;14.470;2022-11-20T03:01:49;18.50;69.00
14577;DHT22;7375;46.072;14.470;2022-11-20T03:04:16;18.50;69.10
14577;DHT22;7375;46.072;14.470;2022-11-20T03:06:43;18.50;69.00
14577;DHT22;7375;46.072;14.470;2022-11-20T03:09:10;18.50;69.00
14577;DHT22;7375;46.072;14.470;2022-11-20T03:11:37;18.50;69.00
14577;DHT22;7375;46.072;14.470;2022-11-20T03:14:04;18.50;69.00
14577;DHT22;7375;46.072;14.470;2022-11-20T03:16:32;18.50;68.90
14577;DHT22;7375;46.072;14.470;2022-11-20T03:18:59;18.40;68.90
14577;DHT22;7375;46.072;14.470;2022-11-20T03:21:26;18.40;69.00
14577;DHT22;7375;46.072;14.470;2022-11-20T03:23:53;18.50;69.00
14577;DHT22;7375;46.072;14.470;2022-11-20T03:26:21;18.40;68.90
14577;DHT22;7375;46.072;14.470;2022-11-20T03:28:48;18.50;69.00
14577;DHT22;7375;46.072;14.470;2022-11-20T03:31:16;18.50;69.00
14577;DHT22;7375;46.072;14.470;2022-11-20T03:33:44;18.50;69.00
14577;DHT22;7375;46.072;14.470;2022-11-20T03:36:12;18.40;68.90
14577;DHT22;7375;46.072;14.470;2022-11-20T03:38:39;18.50;68.90
14577;DHT22;7375;46.072;14.470;2022-11-20T03:41:06;18.40;68.80
14577;DHT22;7375;46.072;14.470;2022-11-20T03:43:33;18.40;68.80
14577;DHT22;7375;46.072;14.470;2022-11-20T03:46:00;18.40;68.80
14577;DHT22;7375;46.072;14.470;2022-11-20T03:48:27;18.40;68.90
14577;DHT22;7375;46.072;14.470;2022-11-20T03:51:07;18.40;68.90
14577;DHT22;7375;46.072;14.470;2022-11-20T03:53:34;18.40;68.90
14577;DHT22;7375;46.072;14.470;2022-11-20T03:56:01;18.40;68.80
14577;DHT22;7375;46.072;14.470;2022-11-20T03:58:27;18.40;68.90
14577;DHT22;7375;46.072;14.470;2022-11-20T04:00:54;18.40;68.80
14577;DHT22;7375;46.072;14.470;2022-11-20T04:03:21;18.40;68.90
14577;DHT22;7375;46.072;14.470;2022-11-20T04:05:48;18.40;68.80
14577;DHT22;7375;46.072;14.470;2022-11-20T04:08:16;18.40;68.90
14577;DHT22;7375;46.072;14.470;2022-11-20T04:10:42;18.40;68.90
14577;DHT22;7375;46.072;14.470;2022-11-20T04:13:09;18.40;68.80
14577;DHT22;7375;46.072;14.470;2022-11-20T04:15:36;18.40;68.80
14577;DHT22;7375;46.072;14.470;2022-11-20T04:18:02;18.40;68.80
14577;DHT22;7375;46.072;14.470;2022-11-20T04:20:29;18.40;68.90
14577;DHT22;7375;46.072;14.470;2022-11-20T04:22:56;18.40;68.80
14577;DHT22;7375;46.072;14.470;2022-11-20T04:25:24;18.40;68.80
14577;DHT22;7375;46.072;14.470;2022-11-20T04:27:51;18.40;68.70
14577;DHT22;7375;46.072;14.470;2022-11-20T04:30:17;18.40;69.30
14577;DHT22;7375;46.072;14.470;2022-11-20T04:32:44;18.40;68.70
14577;DHT22;7375;46.072;14.470;2022-11-20T04:35:11;18.40;68.70
14577;DHT22;7375;46.072;14.470;2022-11-20T04:37:37;18.40;68.70
14577;DHT22;7375;46.072;14.470;2022-11-20T04:40:04;18.40;68.70
14577;DHT22;7375;46.072;14.470;2022-11-20T04:42:33;18.40;68.70
14577;DHT22;7375;46.072;14.470;2022-11-20T04:44:59;18.40;68.70
14577;DHT22;7375;46.072;14.470;2022-11-20T04:47:26;18.40;68.70
14577;DHT22;7375;46.072;14.470;2022-11-20T04:49:53;18.40;68.70
14577;DHT22;7375;46.072;14.470;2022-11-20T04:52:20;18.30;68.80
14577;DHT22;7375;46.072;14.470;2022-11-20T04:54:46;18.30;68.70
14577;DHT22;7375;46.072;14.470;2022-11-20T04:57:14;18.30;68.70
14577;DHT22;7375;46.072;14.470;2022-11-20T04:59:42;18.40;68.70
14577;DHT22;7375;46.072;14.470;2022-11-20T05:02:11;18.30;68.60
14577;DHT22;7375;46.072;14.470;2022-11-20T05:04:38;18.30;68.60
14577;DHT22;7375;46.072;14.470;2022-11-20T05:07:05;18.30;68.60
14577;DHT22;7375;46.072;14.470;2022-11-20T05:09:31;18.30;68.60
14577;DHT22;7375;46.072;14.470;2022-11-20T05:11:58;18.30;68.60
14577;DHT22;7375;46.072;14.470;2022-11-20T05:14:25;18.30;68.60
14577;DHT22;7375;46.072;14.470;2022-11-20T05:16:56;18.30;68.60
14577;DHT22;7375;46.072;14.470;2022-11-20T05:19:22;18.30;68.60
14577;DHT22;7375;46.072;14.470;2022-11-20T05:21:49;18.30;68.60
14577;DHT22;7375;46.072;14.470;2022-11-20T05:24:16;18.30;68.50
14577;DHT22;7375;46.072;14.470;2022-11-20T05:26:42;18.30;68.50
14577;DHT22;7375;46.072;14.470;2022-11-20T05:29:10;18.30;68.50
14577;DHT22;7375;46.072;14.470;2022-11-20T05:31:38;18.40;68.50
14577;DHT22;7375;46.072;14.470;2022-11-20T05:34:09;18.30;68.50
14577;DHT22;7375;46.072;14.470;2022-11-20T05:36:36;18.30;68.50
14577;DHT22;7375;46.072;14.470;2022-11-20T05:39:03;18.30;68.50
14577;DHT22;7375;46.072;14.470;2022-11-20T05:41:30;18.30;68.50
14577;DHT22;7375;46.072;14.470;2022-11-20T05:43:56;18.30;68.50
14577;DHT22;7375;46.072;14.470;2022-11-20T05:46:24;18.30;68.50
14577;DHT22;7375;46.072;14.470;2022-11-20T05:48:51;18.30;68.50
14577;DHT22;7375;46.072;14.470;2022-11-20T05:51:19;18.30;68.50
14577;DHT22;7375;46.072;14.470;2022-11-20T05:53:46;18.30;68.50
14577;DHT22;7375;46.072;14.470;2022-11-20T05:56:13;18.30;68.50
14577;DHT22;7375;46.072;14.470;2022-11-20T05:58:40;18.30;68.40
14577;DHT22;7375;46.072;14.470;2022-11-20T06:01:08;18.30;68.40
14577;DHT22;7375;46.072;14.470;2022-11-20T06:03:35;18.30;68.40
14577;DHT22;7375;46.072;14.470;2022-11-20T06:06:02;18.30;68.40
14577;DHT22;7375;46.072;14.470;2022-11-20T06:08:31;18.30;68.40
14577;DHT22;7375;46.072;14.470;2022-11-20T06:10:58;18.30;68.40
14577;DHT22;7375;46.072;14.470;2022-11-20T06:13:24;18.30;68.40
14577;DHT22;7375;46.072;14.470;2022-11-20T06:15:51;18.30;68.40
14577;DHT22;7375;46.072;14.470;2022-11-20T06:18:19;18.40;68.40
14577;DHT22;7375;46.072;14.470;2022-11-20T06:20:46;18.30;68.30
14577;DHT22;7375;46.072;14.470;2022-11-20T06:23:13;18.30;68.20
14577;DHT22;7375;46.072;14.470;2022-11-20T06:25:44;18.40;69.00
14577;DHT22;7375;46.072;14.470;2022-11-20T06:28:11;18.30;68.20
14577;DHT22;7375;46.072;14.470;2022-11-20T06:30:37;18.30;68.20
14577;DHT22;7375;46.072;14.470;2022-11-20T06:33:10;18.30;68.20
14577;DHT22;7375;46.072;14.470;2022-11-20T06:35:37;18.30;68.20
14577;DHT22;7375;46.072;14.470;2022-11-20T06:38:04;18.30;68.20
14577;DHT22;7375;46.072;14.470;2022-11-20T06:40:31;18.30;68.10
14577;DHT22;7375;46.072;14.470;2022-11-20T06:42:59;18.30;68.10
14577;DHT22;7375;46.072;14.470;2022-11-20T06:45:26;18.30;68.10
14577;DHT22;7375;46.072;14.470;2022-11-20T06:47:52;18.30;68.10
14577;DHT22;7375;46.072;14.470;2022-11-20T06:50:19;18.30;68.10
14577;DHT22;7375;46.072;14.470;2022-11-20T06:52:46;18.30;68.00
14577;DHT22;7375;46.072;14.470;2022-11-20T06:55:13;18.30;68.00
14577;DHT22;7375;46.072;14.470;2022-11-20T06:57:39;18.40;68.10
14577;DHT22;7375;46.072;14.470;2022-11-20T07:00:08;18.30;67.90
14577;DHT22;7375;46.072;14.470;2022-11-20T07:02:35;18.30;67.90
14577;DHT22;7375;46.072;14.470;2022-11-20T07:05:02;18.30;67.90
14577;DHT22;7375;46.072;14.470;2022-11-20T07:07:29;18.30;67.80
14577;DHT22;7375;46.072;14.470;2022-11-20T07:09:55;18.40;67.80
14577;DHT22;7375;46.072;14.470;2022-11-20T07:12:22;18.40;67.80
14577;DHT22;7375;46.072;14.470;2022-11-20T07:14:49;18.40;67.80
14577;DHT22;7375;46.072;14.470;2022-11-20T07:17:17;18.40;67.80
14577;DHT22;7375;46.072;14.470;2022-11-20T07:19:44;18.40;67.70
14577;DHT22;7375;46.072;14.470;2022-11-20T07:22:10;18.40;67.60
14577;DHT22;7375;46.072;14.470;2022-11-20T07:24:38;18.40;67.60
14577;DHT22;7375;46.072;14.470;2022-11-20T07:27:05;18.40;67.50
14577;DHT22;7375;46.072;14.470;2022-11-20T07:29:31;18.40;67.60
14577;DHT22;7375;46.072;14.470;2022-11-20T07:31:58;18.40;67.50
14577;DHT22;7375;46.072;14.470;2022-11-20T07:34:26;18.40;67.40
14577;DHT22;7375;46.072;14.470;2022-11-20T07:36:53;18.40;67.30
14577;DHT22;7375;46.072;14.470;2022-11-20T07:39:20;18.50;67.30
14577;DHT22;7375;46.072;14.470;2022-11-20T07:41:46;18.50;67.30
14577;DHT22;7375;46.072;14.470;2022-11-20T07:44:13;18.50;67.20
14577;DHT22;7375;46.072;14.470;2022-11-20T07:46:40;18.50;67.10
14577;DHT22;7375;46.072;14.470;2022-11-20T07:49:06;18.60;67.10
14577;DHT22;7375;46.072;14.470;2022-11-20T07:51:35;18.60;67.00
14577;DHT22;7375;46.072;14.470;2022-11-20T07:54:01;18.60;66.90
14577;DHT22;7375;46.072;14.470;2022-11-20T07:56:28;18.60;66.80
14577;DHT22;7375;46.072;14.470;2022-11-20T07:58:55;18.60;66.60
14577;DHT22;7375;46.072;14.470;2022-11-20T08:01:22;18.70;66.60
14577;DHT22;7375;46.072;14.470;2022-11-20T08:03:49;18.70;66.50
14577;DHT22;7375;46.072;14.470;2022-11-20T08:06:18;18.70;66.40
14577;DHT22;7375;46.072;14.470;2022-11-20T08:08:46;18.70;67.00
14577;DHT22;7375;46.072;14.470;2022-11-20T08:11:13;18.70;66.30
14577;DHT22;7375;46.072;14.470;2022-11-20T08:13:57;18.70;66.20
14577;DHT22;7375;46.072;14.470;2022-11-20T08:16:39;18.70;66.20
14577;DHT22;7375;46.072;14.470;2022-11-20T08:19:06;18.80;66.30
14577;DHT22;7375;46.072;14.470;2022-11-20T08:21:33;18.80;66.20
14577;DHT22;7375;46.072;14.470;2022-11-20T08:24:01;18.80;66.20
14577;DHT22;7375;46.072;14.470;2022-11-20T08:26:28;18.70;66.10
14577;DHT22;7375;46.072;14.470;2022-11-20T08:28:55;18.70;66.10
14577;DHT22;7375;46.072;14.470;2022-11-20T08:31:22;18.70;66.10
14577;DHT22;7375;46.072;14.470;2022-11-20T08:33:49;18.80;66.10
14577;DHT22;7375;46.072;14.470;2022-11-20T08:36:19;18.80;66.00
14577;DHT22;7375;46.072;14.470;2022-11-20T08:38:47;18.80;65.90
14577;DHT22;7375;46.072;14.470;2022-11-20T08:41:15;18.80;65.90
14577;DHT22;7375;46.072;14.470;2022-11-20T08:43:55;18.80;65.80
14577;DHT22;7375;46.072;14.470;2022-11-20T08:46:23;18.90;65.80
14577;DHT22;7375;46.072;14.470;2022-11-20T08:48:50;18.80;65.70
14577;DHT22;7375;46.072;14.470;2022-11-20T08:51:16;18.90;65.70
14577;DHT22;7375;46.072;14.470;2022-11-20T08:53:43;18.90;65.50
14577;DHT22;7375;46.072;14.470;2022-11-20T08:56:10;19.00;65.60
14577;DHT22;7375;46.072;14.470;2022-11-20T08:58:38;19.00;65.50
14577;DHT22;7375;46.072;14.470;2022-11-20T09:01:05;19.00;65.50
14577;DHT22;7375;46.072;14.470;2022-11-20T09:03:32;19.00;65.40
14577;DHT22;7375;46.072;14.470;2022-11-20T09:05:59;19.00;65.30
14577;DHT22;7375;46.072;14.470;2022-11-20T09:08:29;19.00;65.10
14577;DHT22;7375;46.072;14.470;2022-11-20T09:10:58;19.10;65.00
14577;DHT22;7375;46.072;14.470;2022-11-20T09:13:26;19.10;64.90
14577;DHT22;7375;46.072;14.470;2022-11-20T09:15:58;19.10;66.50
14577;DHT22;7375;46.072;14.470;2022-11-20T09:18:25;19.10;65.60
14577;DHT22;7375;46.072;14.470;2022-11-20T09:20:55;19.10;64.80
14577;DHT22;7375;46.072;14.470;2022-11-20T09:23:24;19.10;65.20
14577;DHT22;7375;46.072;14.470;2022-11-20T09:25:51;19.20;64.60
14577;DHT22;7375;46.072;14.470;2022-11-20T09:28:20;19.20;63.00
14577;DHT22;7375;46.072;14.470;2022-11-20T09:30:47;19.20;63.10
14577;DHT22;7375;46.072;14.470;2022-11-20T09:33:15;19.20;63.40
14577;DHT22;7375;46.072;14.470;2022-11-20T09:35:51;19.20;63.70
14577;DHT22;7375;46.072;14.470;2022-11-20T09:38:18;19.30;63.80
14577;DHT22;7375;46.072;14.470;2022-11-20T09:40:46;19.30;63.90
14577;DHT22;7375;46.072;14.470;2022-11-20T09:43:17;19.40;63.90
14577;DHT22;7375;46.072;14.470;2022-11-20T09:45:50;19.50;63.90
14577;DHT22;7375;46.072;14.470;2022-11-20T09:48:27;19.50;63.70
14577;DHT22;7375;46.072;14.470;2022-11-20T09:50:58;19.60;63.60
14577;DHT22;7375;46.072;14.470;2022-11-20T09:53:30;19.80;63.50
14577;DHT22;7375;46.072;14.470;2022-11-20T09:56:00;19.80;63.30
14577;DHT22;7375;46.072;14.470;2022-11-20T09:58:29;19.80;63.30
14577;DHT22;7375;46.072;14.470;2022-11-20T10:00:59;19.80;63.40
14577;DHT22;7375;46.072;14.470;2022-11-20T10:03:33;19.80;63.40
14577;DHT22;7375;46.072;14.470;2022-11-20T10:06:02;19.90;63.60
14577;DHT22;7375;46.072;14.470;2022-11-20T10:08:32;19.90;63.70
14577;DHT22;7375;46.072;14.470;2022-11-20T10:11:04;19.90;63.30
14577;DHT22;7375;46.072;14.470;2022-11-20T10:13:37;20.00;63.40
14577;DHT22;7375;46.072;14.470;2022-11-20T10:16:15;20.00;63.40
14577;DHT22;7375;46.072;14.470;2022-11-20T10:18:50;20.00;63.40
14577;DHT22;7375;46.072;14.470;2022-11-20T10:21:22;20.00;63.30
14577;DHT22;7375;46.072;14.470;2022-11-20T10:23:54;20.00;63.30
14577;DHT22;7375;46.072;14.470;2022-11-20T10:26:26;20.10;63.30
14577;DHT22;7375;46.072;14.470;2022-11-20T10:29:01;20.10;63.30
14577;DHT22;7375;46.072;14.470;2022-11-20T10:31:35;20.10;63.20
14577;DHT22;7375;46.072;14.470;2022-11-20T10:34:05;20.20;63.10
14577;DHT22;7375;46.072;14.470;2022-11-20T10:36:34;20.20;63.10
14577;DHT22;7375;46.072;14.470;2022-11-20T10:39:04;20.10;63.10
14577;DHT22;7375;46.072;14.470;2022-11-20T10:41:37;20.00;63.30
14577;DHT22;7375;46.072;14.470;2022-11-20T10:44:09;20.00;63.70
14577;DHT22;7375;46.072;14.470;2022-11-20T10:46:37;19.90;63.90
14577;DHT22;7375;46.072;14.470;2022-11-20T10:49:11;19.90;64.20
14577;DHT22;7375;46.072;14.470;2022-11-20T10:51:45;19.80;64.30
14577;DHT22;7375;46.072;14.470;2022-11-20T10:54:17;19.80;64.50
14577;DHT22;7375;46.072;14.470;2022-11-20T10:56:48;19.80;64.60
14577;DHT22;7375;46.072;14.470;2022-11-20T11:02:14;19.80;64.90
14577;DHT22;7375;46.072;14.470;2022-11-20T11:04:42;19.80;64.90
14577;DHT22;7375;46.072;14.470;2022-11-20T11:07:12;19.80;66.30
14577;DHT22;7375;46.072;14.470;2022-11-20T11:09:41;19.80;67.00
14577;DHT22;7375;46.072;14.470;2022-11-20T11:12:09;19.80;67.10
14577;DHT22;7375;46.072;14.470;2022-11-20T11:14:43;19.80;67.10
14577;DHT22;7375;46.072;14.470;2022-11-20T11:17:18;19.80;67.10
14577;DHT22;7375;46.072;14.470;2022-11-20T11:19:57;19.80;67.10
14577;DHT22;7375;46.072;14.470;2022-11-20T11:22:24;19.80;67.10
14577;DHT22;7375;46.072;14.470;2022-11-20T11:24:51;19.80;67.20
14577;DHT22;7375;46.072;14.470;2022-11-20T11:27:18;19.80;67.20
14577;DHT22;7375;46.072;14.470;2022-11-20T11:29:45;19.80;67.30
14577;DHT22;7375;46.072;14.470;2022-11-20T11:32:12;19.80;67.30
14577;DHT22;7375;46.072;14.470;2022-11-20T11:34:42;19.80;67.30
14577;DHT22;7375;46.072;14.470;2022-11-20T11:37:13;19.90;67.30
14577;DHT22;7375;46.072;14.470;2022-11-20T11:39:42;19.90;67.20
14577;DHT22;7375;46.072;14.470;2022-11-20T11:42:09;19.90;67.20
14577;DHT22;7375;46.072;14.470;2022-11-20T11:44:43;19.90;67.20
14577;DHT22;7375;46.072;14.470;2022-11-20T11:47:29;19.90;67.20
14577;DHT22;7375;46.072;14.470;2022-11-20T11:50:14;19.90;67.30
14577;DHT22;7375;46.072;14.470;2022-11-20T11:52:44;19.90;67.40
14577;DHT22;7375;46.072;14.470;2022-11-20T11:55:13;19.90;67.30
14577;DHT22;7375;46.072;14.470;2022-11-20T11:57:42;19.90;67.30
14577;DHT22;7375;46.072;14.470;2022-11-20T12:00:10;19.90;67.20
14577;DHT22;7375;46.072;14.470;2022-11-20T12:02:38;19.90;67.20
14577;DHT22;7375;46.072;14.470;2022-11-20T12:05:13;19.90;67.10
14577;DHT22;7375;46.072;14.470;2022-11-20T12:07:45;19.90;67.00
14577;DHT22;7375;46.072;14.470;2022-11-20T12:10:15;20.00;67.10
14577;DHT22;7375;46.072;14.470;2022-11-20T12:12:43;20.00;67.50
14577;DHT22;7375;46.072;14.470;2022-11-20T12:15:11;20.00;66.80
14577;DHT22;7375;46.072;14.470;2022-11-20T12:17:40;20.00;66.60
14577;DHT22;7375;46.072;14.470;2022-11-20T12:20:10;20.00;66.60
14577;DHT22;7375;46.072;14.470;2022-11-20T12:22:43;19.90;66.60
14577;DHT22;7375;46.072;14.470;2022-11-20T12:25:17;19.90;66.60
14577;DHT22;7375;46.072;14.470;2022-11-20T12:27:51;19.90;66.50
14577;DHT22;7375;46.072;14.470;2022-11-20T12:30:21;19.80;65.70
14577;DHT22;7375;46.072;14.470;2022-11-20T12:33:00;19.80;65.20
14577;DHT22;7375;46.072;14.470;2022-11-20T12:35:43;19.90;64.90
14577;DHT22;7375;46.072;14.470;2022-11-20T12:38:22;19.80;65.20
14577;DHT22;7375;46.072;14.470;2022-11-20T12:40:53;19.90;65.10
14577;DHT22;7375;46.072;14.470;2022-11-20T12:43:24;19.90;65.10
14577;DHT22;7375;46.072;14.470;2022-11-20T12:46:13;19.90;65.00
14577;DHT22;7375;46.072;14.470;2022-11-20T12:48:52;19.90;65.40
14577;DHT22;7375;46.072;14.470;2022-11-20T12:51:31;20.00;65.40
14577;DHT22;7375;46.072;14.470;2022-11-20T12:54:05;20.00;65.30
14577;DHT22;7375;46.072;14.470;2022-11-20T12:56:37;19.90;65.80
14577;DHT22;7375;46.072;14.470;2022-11-20T12:59:10;19.90;65.70
14577;DHT22;7375;46.072;14.470;2022-11-20T13:01:44;19.90;65.70
14577;DHT22;7375;46.072;14.470;2022-11-20T13:04:18;19.90;65.20
14577;DHT22;7375;46.072;14.470;2022-11-20T13:06:50;19.90;65.10
14577;DHT22;7375;46.072;14.470;2022-11-20T13:09:20;19.90;65.00
14577;DHT22;7375;46.072;14.470;2022-11-20T13:11:50;19.90;64.90
14577;DHT22;7375;46.072;14.470;2022-11-20T13:14:25;19.90;64.80
14577;DHT22;7375;46.072;14.470;2022-11-20T13:16:57;19.80;64.80
14577;DHT22;7375;46.072;14.470;2022-11-20T13:19:25;19.80;64.90
14577;DHT22;7375;46.072;14.470;2022-11-20T13:21:52;19.80;64.80
14577;DHT22;7375;46.072;14.470;2022-11-20T13:24:23;19.80;64.80
14577;DHT22;7375;46.072;14.470;2022-11-20T13:27:17;19.80;64.70
14577;DHT22;7375;46.072;14.470;2022-11-20T13:29:46;19.80;64.80
14577;DHT22;7375;46.072;14.470;2022-11-20T13:32:15;19.80;64.80
14577;DHT22;7375;46.072;14.470;2022-11-20T13:34:51;19.80;64.80
14577;DHT22;7375;46.072;14.470;2022-11-20T13:37:24;19.80;64.80
14577;DHT22;7375;46.072;14.470;2022-11-20T13:39:51;19.70;64.70
14577;DHT22;7375;46.072;14.470;2022-11-20T13:42:23;19.70;64.80
14577;DHT22;7375;46.072;14.470;2022-11-20T13:44:54;19.70;64.80
14577;DHT22;7375;46.072;14.470;2022-11-20T13:47:22;19.70;64.80
14577;DHT22;7375;46.072;14.470;2022-11-20T13:49:50;19.70;64.80
14577;DHT22;7375;46.072;14.470;2022-11-20T13:52:30;19.70;64.90
14577;DHT22;7375;46.072;14.470;2022-11-20T13:55:17;19.60;64.90
14577;DHT22;7375;46.072;14.470;2022-11-20T13:57:57;19.60;65.00
14577;DHT22;7375;46.072;14.470;2022-11-20T14:00:25;19.60;65.10
14577;DHT22;7375;46.072;14.470;2022-11-20T14:03:08;19.50;65.10
14577;DHT22;7375;46.072;14.470;2022-11-20T14:05:38;19.60;65.20
14577;DHT22;7375;46.072;14.470;2022-11-20T14:08:07;19.60;65.20
14577;DHT22;7375;46.072;14.470;2022-11-20T14:10:39;19.50;65.20
14577;DHT22;7375;46.072;14.470;2022-11-20T14:13:16;19.50;65.20
14577;DHT22;7375;46.072;14.470;2022-11-20T14:15:44;19.50;65.30
14577;DHT22;7375;46.072;14.470;2022-11-20T14:18:12;19.50;66.50
14577;DHT22;7375;46.072;14.470;2022-11-20T14:20:39;19.50;67.40
14577;DHT22;7375;46.072;14.470;2022-11-20T14:23:07;19.50;67.70
14577;DHT22;7375;46.072;14.470;2022-11-20T14:25:35;19.50;68.10
14577;DHT22;7375;46.072;14.470;2022-11-20T14:28:02;19.40;68.30
14577;DHT22;7375;46.072;14.470;2022-11-20T14:30:38;19.40;68.50
14577;DHT22;7375;46.072;14.470;2022-11-20T14:33:05;19.40;68.80
14577;DHT22;7375;46.072;14.470;2022-11-20T14:35:34;19.40;69.10
14577;DHT22;7375;46.072;14.470;2022-11-20T14:38:01;19.40;69.40
14577;DHT22;7375;46.072;14.470;2022-11-20T14:40:29;19.40;69.50
14577;DHT22;7375;46.072;14.470;2022-11-20T14:42:57;19.40;69.50
14577;DHT22;7375;46.072;14.470;2022-11-20T14:45:24;19.30;69.60
14577;DHT22;7375;46.072;14.470;2022-11-20T14:47:53;19.30;69.70
14577;DHT22;7375;46.072;14.470;2022-11-20T14:50:21;19.30;69.80
14577;DHT22;7375;46.072;14.470;2022-11-20T14:52:49;19.30;69.80
14577;DHT22;7375;46.072;14.470;2022-11-20T14:55:24;19.30;69.60
14577;DHT22;7375;46.072;14.470;2022-11-20T14:57:54;19.30;69.40
14577;DHT22;7375;46.072;14.470;2022-11-20T15:00:21;19.30;69.30
14577;DHT22;7375;46.072;14.470;2022-11-20T15:02:49;19.30;69.20
14577;DHT22;7375;46.072;14.470;2022-11-20T15:05:18;19.20;72.20
14577;DHT22;7375;46.072;14.470;2022-11-20T15:07:45;19.20;73.80
14577;DHT22;7375;46.072;14.470;2022-11-20T15:10:20;19.20;73.90
14577;DHT22;7375;46.072;14.470;2022-11-20T15:12:47;19.10;73.50
14577;DHT22;7375;46.072;14.470;2022-11-20T15:15:16;19.00;64.80
14577;DHT22;7375;46.072;14.470;2022-11-20T15:17:44;18.80;58.70
14577;DHT22;7375;46.072;14.470;2022-11-20T15:20:11;18.80;61.90
14577;DHT22;7375;46.072;14.470;2022-11-20T15:22:41;18.70;59.50
14577;DHT22;7375;46.072;14.470;2022-11-20T15:25:11;18.70;63.90
14577;DHT22;7375;46.072;14.470;2022-11-20T15:27:38;18.70;62.20
14577;DHT22;7375;46.072;14.470;2022-11-20T15:30:11;18.70;61.60
14577;DHT22;7375;46.072;14.470;2022-11-20T15:32:38;18.70;60.80
14577;DHT22;7375;46.072;14.470;2022-11-20T15:35:05;18.70;60.20
14577;DHT22;7375;46.072;14.470;2022-11-20T15:37:32;18.80;60.70
14577;DHT22;7375;46.072;14.470;2022-11-20T15:40:00;18.80;61.00
14577;DHT22;7375;46.072;14.470;2022-11-20T15:42:30;18.90;61.50
14577;DHT22;7375;46.072;14.470;2022-11-20T15:44:56;18.90;61.80
14577;DHT22;7375;46.072;14.470;2022-11-20T15:47:25;18.90;61.90